Terminal Aerodrome Forecast
Issued by NWS Cleveland, OH

Home | Current Version | Previous Version | Graphics & Text | Print | Product List | Glossary On
Versions: 1 2 3 4 5 6 7 8 9 10 11 12 13 14 15 16 17 18 19 20 21 22 23 24 25
248
FTUS41 KCLE 181523 AAB
TAFCLE
TAF AMD
KCLE 181523Z 1815/1918 22015G22KT P6SM SCT045
     FM181800 25015G25KT P6SM BKN045
     FM182100 27015G22KT P6SM SCT050
     FM190000 25008KT P6SM SCT200
     FM190900 23006KT P6SM SCT100 OVC200
     FM191200 23008KT 6SM -SHRA OVC050=

USA.gov is the U.S. government's official web portal to all federal, state and local government web resources and services.